createdAt,value
2022-11-24T00:01:07.497Z,98811.09
2022-11-24T00:03:35.031Z,98812.78
2022-11-24T00:06:07.291Z,98812.63
2022-11-24T00:08:34.773Z,98812.88
2022-11-24T00:11:06.722Z,98812.63
2022-11-24T00:13:34.791Z,98818.78
2022-11-24T00:16:08.803Z,98813.97
2022-11-24T00:18:36.220Z,98820.44
2022-11-24T00:21:03.753Z,98814.66
2022-11-24T00:23:31.204Z,98819.72
2022-11-24T00:26:04.915Z,98814.91
2022-11-24T00:28:34.162Z,98821.56
2022-11-24T00:31:01.870Z,98821.94
2022-11-24T00:33:30.735Z,98818.56
2022-11-24T00:35:58.734Z,98819.31
2022-11-24T00:38:26.836Z,98814.75
2022-11-24T00:40:54.269Z,98825.19
2022-11-24T00:43:21.847Z,98828.06
2022-11-24T00:45:49.389Z,98832.00
2022-11-24T00:48:16.934Z,98832.13
2022-11-24T00:50:45.714Z,98840.34
2022-11-24T00:53:13.153Z,98837.22
2022-11-24T00:55:40.564Z,98840.34
2022-11-24T00:58:07.979Z,98847.28
2022-11-24T01:00:35.424Z,98849.59
2022-11-24T01:03:02.989Z,98848.25
2022-11-24T01:05:30.522Z,98846.72
2022-11-24T01:07:59.273Z,98851.19
2022-11-24T01:10:26.714Z,98851.47
2022-11-24T01:12:54.471Z,98862.03
2022-11-24T01:15:22.051Z,98861.13
2022-11-24T01:17:49.648Z,98856.47
2022-11-24T01:20:17.607Z,98858.28
2022-11-24T01:22:45.585Z,98855.75
2022-11-24T01:25:14.363Z,98854.84
2022-11-24T01:27:41.780Z,98859.19
2022-11-24T01:30:10.937Z,98861.34
2022-11-24T01:32:38.362Z,98862.81
2022-11-24T01:35:06.564Z,98856.53
2022-11-24T01:37:33.959Z,98874.22
2022-11-24T01:40:01.492Z,98870.56
2022-11-24T01:42:43.472Z,98857.66
2022-11-24T01:45:32.404Z,98880.72
2022-11-24T01:48:01.039Z,98869.41
2022-11-24T01:50:28.847Z,98880.47
2022-11-24T01:52:56.631Z,98884.66
2022-11-24T01:55:28.082Z,98879.25
2022-11-24T01:57:59.504Z,98880.19
2022-11-24T02:00:27.087Z,98887.31
2022-11-24T02:02:54.614Z,98890.03
2022-11-24T02:05:26.009Z,98888.16
2022-11-24T02:07:55.178Z,98901.56
2022-11-24T02:10:23.380Z,98887.31
2022-11-24T02:12:52.671Z,98902.44
2022-11-24T02:15:21.842Z,98902.63
2022-11-24T02:17:49.290Z,98897.28
2022-11-24T02:20:17.843Z,98901.22
2022-11-24T02:22:49.625Z,98911.59
2022-11-24T02:25:24.257Z,98912.13
2022-11-24T02:27:54.186Z,98909.78
2022-11-24T02:30:21.925Z,98911.72
2022-11-24T02:32:49.347Z,98920.22
2022-11-24T02:35:17.038Z,98918.28
2022-11-24T02:37:44.428Z,98917.91
2022-11-24T02:40:12.563Z,98931.56
2022-11-24T02:42:42.742Z,98929.03
2022-11-24T02:45:12.635Z,98924.22
2022-11-24T02:47:40.803Z,98936.63
2022-11-24T02:50:08.728Z,98944.66
2022-11-24T02:52:36.178Z,98934.91
2022-11-24T02:55:03.960Z,98947.94
2022-11-24T02:57:31.447Z,98952.66
2022-11-24T02:59:58.918Z,98942.44
2022-11-24T03:02:27.717Z,98951.84
2022-11-24T03:04:55.304Z,98951.41
2022-11-24T03:07:23.008Z,98948.78
2022-11-24T03:09:50.497Z,98949.53
2022-11-24T03:12:17.927Z,98951.22
2022-11-24T03:14:45.406Z,98946.28
2022-11-24T03:17:12.968Z,98946.59
2022-11-24T03:19:41.743Z,98956.00
2022-11-24T03:22:09.459Z,98961.28
2022-11-24T03:24:38.141Z,98962.16
2022-11-24T03:27:05.628Z,98965.94
2022-11-24T03:29:33.304Z,98965.81
2022-11-24T03:32:00.735Z,98975.72
2022-11-24T03:34:28.152Z,98969.78
2022-11-24T03:36:56.877Z,98973.19
2022-11-24T03:39:24.280Z,98972.50
2022-11-24T03:41:52.289Z,98975.13
2022-11-24T03:44:19.735Z,98977.91
2022-11-24T03:46:47.336Z,98977.47
2022-11-24T03:49:14.907Z,98981.78
2022-11-24T03:51:42.409Z,98983.88
2022-11-24T03:54:11.485Z,98984.50
2022-11-24T03:56:38.921Z,98989.00
2022-11-24T03:59:06.328Z,98981.47
2022-11-24T04:01:33.940Z,98991.09
2022-11-24T04:04:01.605Z,98998.09
2022-11-24T04:06:29.047Z,98996.31
2022-11-24T04:08:57.349Z,98995.13
2022-11-24T04:11:43.935Z,98992.44
2022-11-24T04:14:13.827Z,98992.59
2022-11-24T04:16:41.449Z,99000.84
2022-11-24T04:19:08.878Z,99000.09
2022-11-24T04:21:36.334Z,99005.09
2022-11-24T04:24:03.795Z,99013.88
2022-11-24T04:26:32.830Z,99005.94
2022-11-24T04:29:00.295Z,99012.97
2022-11-24T04:31:27.778Z,99011.59
2022-11-24T04:33:55.203Z,99025.63
2022-11-24T04:36:22.615Z,99012.69
2022-11-24T04:39:23.333Z,99023.72
2022-11-24T04:41:38.739Z,99020.50
2022-11-24T04:44:06.196Z,99030.16
2022-11-24T04:46:33.680Z,99028.09
2022-11-24T04:49:01.191Z,99033.16
2022-11-24T04:51:28.663Z,99031.28
2022-11-24T04:53:56.091Z,99025.88
2022-11-24T04:56:23.579Z,99034.50
2022-11-24T04:58:52.326Z,99036.06
2022-11-24T05:01:19.867Z,99040.28
2022-11-24T05:03:47.334Z,99044.75
2022-11-24T05:06:14.824Z,99047.56
2022-11-24T05:08:42.333Z,99047.34
2022-11-24T05:11:09.804Z,99048.16
2022-11-24T05:13:37.266Z,99052.28
2022-11-24T05:16:06.329Z,99053.03
2022-11-24T05:18:33.803Z,99057.34
2022-11-24T05:21:01.461Z,99057.50
2022-11-24T05:23:28.884Z,99057.63
2022-11-24T05:26:00.234Z,99065.06
2022-11-24T05:28:27.947Z,99069.56
2022-11-24T05:30:55.671Z,99078.25
2022-11-24T05:33:24.506Z,99075.78
2022-11-24T05:35:51.944Z,99078.78
2022-11-24T05:38:19.528Z,99086.53
2022-11-24T05:40:46.952Z,99084.25
2022-11-24T05:43:15.252Z,99088.19
2022-11-24T05:45:43.953Z,99098.66
2022-11-24T05:48:13.899Z,99089.19
2022-11-24T05:50:43.023Z,99092.78
2022-11-24T05:53:12.066Z,99091.97
2022-11-24T05:55:40.181Z,99096.97
2022-11-24T05:58:08.926Z,99104.50
2022-11-24T06:00:37.552Z,99100.50
2022-11-24T06:03:05.156Z,99102.53
2022-11-24T06:05:32.840Z,99113.78
2022-11-24T06:08:01.559Z,99111.81
2022-11-24T06:10:29.209Z,99108.56
2022-11-24T06:12:56.704Z,99113.75
2022-11-24T06:15:24.529Z,99113.97
2022-11-24T06:17:56.000Z,99120.34
2022-11-24T06:20:27.003Z,99114.44
2022-11-24T06:22:58.696Z,99125.19
2022-11-24T06:25:27.700Z,99124.97
2022-11-24T06:27:55.263Z,99129.91
2022-11-24T06:30:22.680Z,99129.19
2022-11-24T06:32:50.253Z,99134.00
2022-11-24T06:35:18.156Z,99148.94
2022-11-24T06:37:46.186Z,99146.31
2022-11-24T06:40:13.855Z,99150.00
2022-11-24T06:42:42.603Z,99153.88
2022-11-24T06:45:10.853Z,99154.97
2022-11-24T06:47:38.436Z,99160.31
2022-11-24T06:50:06.829Z,99166.84
2022-11-24T06:52:34.316Z,99157.13
2022-11-24T06:55:01.707Z,99173.97
2022-11-24T06:57:31.060Z,99169.69
2022-11-24T06:59:59.917Z,99167.97
2022-11-24T07:02:27.348Z,99178.09
2022-11-24T07:04:54.800Z,99181.84
2022-11-24T07:07:22.287Z,99180.81
2022-11-24T07:09:49.759Z,99185.56
2022-11-24T07:12:17.438Z,99188.53
2022-11-24T07:14:44.851Z,99198.78
2022-11-24T07:17:13.575Z,99192.25
2022-11-24T07:19:40.964Z,99195.72
2022-11-24T07:22:08.860Z,99204.66
2022-11-24T07:24:36.594Z,99200.19
2022-11-24T07:27:04.271Z,99207.00
2022-11-24T07:29:31.696Z,99207.50
2022-11-24T07:32:04.963Z,99219.06
2022-11-24T07:34:34.737Z,99219.47
2022-11-24T07:37:02.293Z,99226.56
2022-11-24T07:39:29.723Z,99220.44
2022-11-24T07:41:57.178Z,99224.31
2022-11-24T07:44:24.631Z,99218.00
2022-11-24T07:46:52.128Z,99226.72
2022-11-24T07:49:19.794Z,99225.72
2022-11-24T07:51:48.571Z,99233.25
2022-11-24T07:54:16.019Z,99241.25
2022-11-24T07:56:43.448Z,99244.94
2022-11-24T07:59:10.883Z,99240.63
2022-11-24T08:01:38.633Z,99244.22
2022-11-24T08:04:06.404Z,99235.31
2022-11-24T08:06:39.673Z,99237.09
2022-11-24T08:09:10.788Z,99246.88
2022-11-24T08:11:38.221Z,99251.09
2022-11-24T08:14:05.912Z,99246.22
2022-11-24T08:16:33.412Z,99256.91
2022-11-24T08:19:00.962Z,99255.75
2022-11-24T08:21:28.383Z,99259.19
2022-11-24T08:23:56.859Z,99250.44
2022-11-24T08:26:26.300Z,99261.84
2022-11-24T08:28:55.521Z,99255.69
2022-11-24T08:31:23.010Z,99269.91
2022-11-24T08:33:50.475Z,99266.34
2022-11-24T08:36:19.832Z,99274.34
2022-11-24T08:38:48.839Z,99266.00
2022-11-24T08:41:17.636Z,99275.69
2022-11-24T08:43:46.379Z,99280.03
2022-11-24T08:46:16.845Z,99275.63
2022-11-24T08:48:44.927Z,99282.94
2022-11-24T08:51:15.442Z,99278.91
2022-11-24T08:53:43.361Z,99286.69
2022-11-24T08:56:12.752Z,99286.47
2022-11-24T08:58:41.099Z,99302.09
2022-11-24T09:01:11.783Z,99301.66
2022-11-24T09:03:44.789Z,99306.97
2022-11-24T09:06:16.325Z,99308.59
2022-11-24T09:08:43.740Z,99306.03
2022-11-24T09:11:13.054Z,99306.44
2022-11-24T09:13:41.403Z,99312.69
2022-11-24T09:16:13.090Z,99323.69
2022-11-24T09:18:41.208Z,99316.94
2022-11-24T09:21:09.393Z,99319.44
2022-11-24T09:23:37.022Z,99326.19
2022-11-24T09:26:06.491Z,99330.03
2022-11-24T09:28:33.931Z,99324.75
2022-11-24T09:31:02.373Z,99336.28
2022-11-24T09:33:31.668Z,99333.91
2022-11-24T09:35:59.413Z,99333.47
2022-11-24T09:38:27.109Z,99325.78
2022-11-24T09:40:58.059Z,99333.03
2022-11-24T09:43:30.486Z,99337.97
2022-11-24T09:46:06.461Z,99342.94
2022-11-24T09:48:37.655Z,99347.91
2022-11-24T09:51:05.652Z,99349.56
2022-11-24T09:53:35.727Z,99348.09
2022-11-24T09:56:06.359Z,99348.09
2022-11-24T09:58:39.493Z,99359.44
2022-11-24T10:01:16.092Z,99360.25
2022-11-24T10:03:46.545Z,99358.88
2022-11-24T10:06:21.715Z,99366.94
2022-11-24T10:09:13.487Z,99370.22
2022-11-24T10:11:45.936Z,99373.63
2022-11-24T10:14:53.300Z,99368.66
2022-11-24T10:17:30.421Z,99376.25
2022-11-24T10:20:04.735Z,99381.13
2022-11-24T10:22:40.731Z,99375.16
2022-11-24T10:25:22.699Z,99372.72
2022-11-24T10:27:53.031Z,99375.38
2022-11-24T10:30:23.726Z,99382.41
2022-11-24T10:32:55.438Z,99388.63
2022-11-24T10:35:30.172Z,99389.25
2022-11-24T10:38:04.047Z,99385.25
2022-11-24T10:43:27.101Z,99392.66
2022-11-24T10:45:55.855Z,99393.88
2022-11-24T10:48:25.549Z,99397.41
2022-11-24T10:51:02.195Z,99394.53
2022-11-24T10:53:31.295Z,99398.22
2022-11-24T10:56:01.239Z,99409.06
2022-11-24T10:58:35.887Z,99401.72
2022-11-24T11:01:21.503Z,99400.31
2022-11-24T11:03:50.382Z,99404.84
2022-11-24T11:06:27.016Z,99406.38
2022-11-24T11:09:30.991Z,99413.81
2022-11-24T11:12:36.246Z,99408.09
2022-11-24T11:14:58.020Z,99407.56
2022-11-24T11:17:35.858Z,99413.78
2022-11-24T11:20:06.902Z,99420.50
2022-11-24T11:22:37.414Z,99412.97
2022-11-24T11:25:19.783Z,99413.81
2022-11-24T11:27:48.173Z,99415.94
2022-11-24T11:36:11.698Z,99434.50
2022-11-24T11:38:41.319Z,99442.00
2022-11-24T11:41:12.050Z,99436.84
2022-11-24T11:43:40.732Z,99443.47
2022-11-24T11:46:13.295Z,99439.09
2022-11-24T11:48:44.739Z,99445.88
2022-11-24T11:51:28.243Z,99450.81
2022-11-24T11:54:03.196Z,99453.94
2022-11-24T11:56:32.213Z,99443.00
2022-11-24T11:59:07.144Z,99456.25
2022-11-24T12:01:44.701Z,99458.28
2022-11-24T12:04:17.517Z,99464.50
2022-11-24T12:06:57.485Z,99464.09
2022-11-24T12:09:37.507Z,99470.16
2022-11-24T12:12:21.847Z,99468.66
2022-11-24T12:14:58.272Z,99480.97
2022-11-24T12:17:31.681Z,99480.34
2022-11-24T12:20:14.422Z,99479.28
2022-11-24T12:22:47.288Z,99482.38
2022-11-24T12:25:24.213Z,99484.50
2022-11-24T12:27:57.635Z,99492.63
2022-11-24T12:30:25.221Z,99491.19
2022-11-24T12:33:10.206Z,99506.19
2022-11-24T12:35:39.750Z,99501.81
2022-11-24T12:38:19.013Z,99504.09
2022-11-24T12:41:18.095Z,99510.94
2022-11-24T12:43:51.784Z,99505.88
2022-11-24T12:46:22.323Z,99511.75
2022-11-24T12:48:56.374Z,99516.06
2022-11-24T12:51:29.745Z,99511.44
2022-11-24T12:53:58.524Z,99514.13
2022-11-24T12:56:31.728Z,99515.50
2022-11-24T12:59:06.427Z,99506.59
2022-11-24T13:01:37.185Z,99505.19
2022-11-24T13:04:12.255Z,99499.59
2022-11-24T13:06:49.297Z,99502.06
2022-11-24T13:09:17.410Z,99507.84
2022-11-24T13:11:46.955Z,99503.59
2022-11-24T13:14:19.615Z,99508.56
2022-11-24T13:19:43.141Z,99517.25
2022-11-24T13:22:16.134Z,99527.69
2022-11-24T13:24:44.766Z,99529.66
2022-11-24T13:27:41.606Z,99522.06
2022-11-24T13:30:51.912Z,99526.88
2022-11-24T13:33:37.915Z,99523.88
2022-11-24T13:36:29.914Z,99523.25
2022-11-24T13:38:57.807Z,99523.16
2022-11-24T13:42:08.621Z,99527.94
2022-11-24T13:44:54.100Z,99523.66
2022-11-24T13:47:46.800Z,99529.31
2022-11-24T13:50:22.979Z,99532.09
2022-11-24T13:52:53.056Z,99531.78
2022-11-24T13:55:23.195Z,99528.94
2022-11-24T13:57:52.408Z,99536.91
2022-11-24T14:00:23.371Z,99543.16
2022-11-24T14:02:51.697Z,99539.41
2022-11-24T14:05:20.734Z,99549.47
2022-11-24T14:07:49.460Z,99548.00
2022-11-24T14:10:19.063Z,99554.91
2022-11-24T14:12:46.518Z,99548.53
2022-11-24T14:15:24.329Z,99558.19
2022-11-24T14:17:51.796Z,99549.44
2022-11-24T14:20:24.688Z,99553.84
2022-11-24T14:22:52.443Z,99545.75
2022-11-24T14:25:24.212Z,99551.19
2022-11-24T14:27:51.734Z,99548.19
2022-11-24T14:30:21.479Z,99555.00
2022-11-24T14:32:57.610Z,99563.06
2022-11-24T14:35:26.654Z,99560.53
2022-11-24T14:37:54.481Z,99563.00
2022-11-24T14:40:42.467Z,99569.09
2022-11-24T14:43:25.242Z,99569.34
2022-11-24T14:45:55.352Z,99578.50
2022-11-24T14:48:27.796Z,99576.41
2022-11-24T14:51:06.577Z,99577.25
2022-11-24T14:53:35.303Z,99580.47
2022-11-24T14:56:11.332Z,99583.63
2022-11-24T14:58:42.169Z,99586.63
2022-11-24T15:01:20.238Z,99582.63
2022-11-24T15:04:21.633Z,99584.63
2022-11-24T15:07:07.533Z,99590.94
2022-11-24T15:09:39.422Z,99587.16
2022-11-24T15:12:09.457Z,99589.88
2022-11-24T15:14:46.865Z,99587.94
2022-11-24T15:17:19.314Z,99591.91
2022-11-24T15:19:49.300Z,99603.25
2022-11-24T15:22:36.899Z,99599.06
2022-11-24T15:25:19.926Z,99603.50
2022-11-24T15:27:47.321Z,99606.28
2022-11-24T15:30:15.103Z,99604.34
2022-11-24T15:32:49.728Z,99599.06
2022-11-24T15:35:18.521Z,99599.59
2022-11-24T15:37:45.965Z,99603.59
2022-11-24T15:40:14.334Z,99604.47
2022-11-24T15:42:41.927Z,99610.91
2022-11-24T15:45:11.992Z,99613.22
2022-11-24T15:47:39.431Z,99615.22
2022-11-24T15:50:08.272Z,99621.22
2022-11-24T15:52:37.164Z,99632.03
2022-11-24T15:55:05.418Z,99624.28
2022-11-24T15:57:33.744Z,99626.94
2022-11-24T16:00:01.479Z,99625.25
2022-11-24T16:02:29.111Z,99630.66
2022-11-24T16:04:56.586Z,99637.91
2022-11-24T16:07:24.087Z,99642.91
2022-11-24T16:09:52.860Z,99640.94
2022-11-24T16:12:20.581Z,99643.91
2022-11-24T16:14:47.994Z,99643.41
2022-11-24T16:17:15.440Z,99647.88
2022-11-24T16:19:42.835Z,99646.53
2022-11-24T16:22:10.303Z,99651.31
2022-11-24T16:24:37.703Z,99649.38
2022-11-24T16:27:09.441Z,99647.88
2022-11-24T16:29:38.561Z,99648.84
2022-11-24T16:32:06.895Z,99647.31
2022-11-24T16:34:34.657Z,99651.50
2022-11-24T16:37:02.443Z,99648.84
2022-11-24T16:39:29.843Z,99655.97
2022-11-24T16:41:57.291Z,99655.75
2022-11-24T16:44:26.098Z,99657.53
2022-11-24T16:46:53.575Z,99660.88
2022-11-24T16:49:21.352Z,99660.50
2022-11-24T16:51:48.760Z,99666.03
2022-11-24T16:54:16.194Z,99664.03
2022-11-24T16:56:43.616Z,99664.34
2022-11-24T16:59:11.663Z,99658.91
2022-11-24T17:01:40.949Z,99661.34
2022-11-24T17:04:12.538Z,99659.69
2022-11-24T17:06:40.722Z,99666.25
2022-11-24T17:09:09.004Z,99668.06
2022-11-24T17:11:36.496Z,99669.41
2022-11-24T17:14:03.941Z,99670.38
2022-11-24T17:16:31.421Z,99670.34
2022-11-24T17:19:00.191Z,99660.81
2022-11-24T17:21:28.506Z,99663.16
2022-11-24T17:23:56.604Z,99655.03
2022-11-24T17:26:24.815Z,99662.22
2022-11-24T17:28:52.222Z,99662.06
2022-11-24T17:31:22.390Z,99666.25
2022-11-24T17:33:50.131Z,99664.75
2022-11-24T17:36:18.878Z,99671.34
2022-11-24T17:38:46.343Z,99667.31
2022-11-24T17:41:13.776Z,99672.13
2022-11-24T17:43:41.187Z,99667.81
2022-11-24T17:46:10.708Z,99673.44
2022-11-24T17:48:38.190Z,99675.78
2022-11-24T17:51:07.862Z,99675.63
2022-11-24T17:53:39.028Z,99678.19
2022-11-24T17:56:07.374Z,99671.78
2022-11-24T17:58:41.250Z,99671.97
2022-11-24T18:01:10.855Z,99676.22
2022-11-24T18:03:39.499Z,99673.28
2022-11-24T18:06:07.791Z,99674.34
2022-11-24T18:08:37.265Z,99681.16
2022-11-24T18:11:05.517Z,99685.25
2022-11-24T18:13:54.983Z,99682.19
2022-11-24T18:16:20.451Z,99677.63
2022-11-24T18:18:50.401Z,99687.75
2022-11-24T18:21:20.462Z,99683.13
2022-11-24T18:23:49.219Z,99678.16
2022-11-24T18:26:17.143Z,99689.00
2022-11-24T18:28:45.670Z,99672.72
2022-11-24T18:31:15.150Z,99677.63
2022-11-24T18:33:44.026Z,99674.06
2022-11-24T18:36:14.057Z,99676.13
2022-11-24T18:38:41.531Z,99678.13
2022-11-24T18:41:11.866Z,99671.38
2022-11-24T18:43:39.481Z,99677.91
2022-11-24T18:46:08.043Z,99677.50
2022-11-24T18:48:35.869Z,99678.09
2022-11-24T18:51:03.366Z,99678.91
2022-11-24T18:53:31.009Z,99674.03
2022-11-24T18:55:58.967Z,99669.16
2022-11-24T18:58:29.787Z,99671.72
2022-11-24T19:01:06.891Z,99677.16
2022-11-24T19:03:34.658Z,99670.84
2022-11-24T19:06:03.286Z,99678.75
2022-11-24T19:08:30.765Z,99678.84
2022-11-24T19:10:58.246Z,99685.47
2022-11-24T19:13:25.759Z,99682.78
2022-11-24T19:15:54.581Z,99679.50
2022-11-24T19:18:22.312Z,99682.13
2022-11-24T19:20:49.723Z,99684.13
2022-11-24T19:23:18.447Z,99679.78
2022-11-24T19:25:45.904Z,99685.88
2022-11-24T19:28:13.333Z,99680.88
2022-11-24T19:30:41.391Z,99686.88
2022-11-24T19:33:10.139Z,99683.81
2022-11-24T19:35:37.715Z,99685.84
2022-11-24T19:38:05.188Z,99687.69
2022-11-24T19:40:32.605Z,99689.09
2022-11-24T19:42:59.991Z,99694.06
2022-11-24T19:45:28.540Z,99702.25
2022-11-24T19:47:55.981Z,99704.84
2022-11-24T19:50:24.777Z,99702.72
2022-11-24T19:52:52.158Z,99704.19
2022-11-24T19:55:19.570Z,99713.31
2022-11-24T19:57:47.292Z,99710.34
2022-11-24T20:00:15.929Z,99714.81
2022-11-24T20:02:43.425Z,99713.50
2022-11-24T20:05:10.934Z,99729.84
2022-11-24T20:07:39.727Z,99719.88
2022-11-24T20:10:08.658Z,99731.59
2022-11-24T20:12:36.090Z,99734.56
2022-11-24T20:15:03.591Z,99728.31
2022-11-24T20:17:32.911Z,99728.84
2022-11-24T20:20:00.665Z,99735.63
2022-11-24T20:22:28.087Z,99730.59
2022-11-24T20:24:56.837Z,99732.66
2022-11-24T20:27:24.225Z,99733.13
2022-11-24T20:29:51.640Z,99735.75
2022-11-24T20:32:20.517Z,99730.66
2022-11-24T20:34:47.956Z,99732.25
2022-11-24T20:37:15.759Z,99732.63
2022-11-24T20:39:43.203Z,99733.44
2022-11-24T20:42:12.061Z,99741.31
2022-11-24T20:44:39.482Z,99744.47
2022-11-24T20:47:07.143Z,99739.81
2022-11-24T20:49:34.570Z,99738.38
2022-11-24T20:52:01.988Z,99736.88
2022-11-24T20:54:29.724Z,99739.38
2022-11-24T20:56:57.212Z,99739.97
2022-11-24T20:59:26.299Z,99741.09
2022-11-24T21:01:55.121Z,99730.16
2022-11-24T21:04:24.341Z,99740.06
2022-11-24T21:06:51.851Z,99738.31
2022-11-24T21:09:19.532Z,99740.28
2022-11-24T21:11:47.058Z,99747.69
2022-11-24T21:14:14.548Z,99747.16
2022-11-24T21:16:43.908Z,99739.41
2022-11-24T21:19:12.953Z,99740.50
2022-11-24T21:21:42.405Z,99732.75
2022-11-24T21:24:12.470Z,99742.53
2022-11-24T21:26:41.443Z,99736.97
2022-11-24T21:29:09.377Z,99737.28
2022-11-24T21:31:37.623Z,99743.56
2022-11-24T21:34:07.300Z,99747.41
2022-11-24T21:36:35.727Z,99744.25
2022-11-24T21:39:04.355Z,99745.47
2022-11-24T21:41:33.412Z,99743.13
2022-11-24T21:44:00.852Z,99740.41
2022-11-24T21:46:29.314Z,99738.63
2022-11-24T21:48:56.780Z,99744.50
2022-11-24T21:51:25.531Z,99734.06
2022-11-24T21:53:52.939Z,99734.13
2022-11-24T21:56:21.966Z,99733.28
2022-11-24T21:58:51.582Z,99733.63
2022-11-24T22:01:20.788Z,99737.19
2022-11-24T22:03:48.323Z,99742.00
2022-11-24T22:06:16.544Z,99729.25
2022-11-24T22:08:45.891Z,99729.94
2022-11-24T22:11:15.555Z,99730.09
2022-11-24T22:13:43.775Z,99729.41
2022-11-24T22:16:12.852Z,99736.47
2022-11-24T22:18:41.760Z,99737.63
2022-11-24T22:21:11.781Z,99736.41
2022-11-24T22:23:39.216Z,99732.66
2022-11-24T22:26:10.952Z,99735.31
2022-11-24T22:28:38.438Z,99729.78
2022-11-24T22:31:06.370Z,99721.91
2022-11-24T22:33:34.234Z,99721.25
2022-11-24T22:36:02.300Z,99725.66
2022-11-24T22:38:30.438Z,99722.75
2022-11-24T22:41:01.716Z,99719.66
2022-11-24T22:43:32.603Z,99724.66
2022-11-24T22:46:03.767Z,99717.47
2022-11-24T22:48:31.286Z,99717.47
2022-11-24T22:51:03.068Z,99715.28
2022-11-24T22:53:30.482Z,99708.91
2022-11-24T22:55:57.921Z,99706.28
2022-11-24T22:58:25.329Z,99717.78
2022-11-24T23:00:54.093Z,99717.13
2022-11-24T23:03:21.547Z,99710.38
2022-11-24T23:05:48.996Z,99716.88
2022-11-24T23:08:16.394Z,99707.75
2022-11-24T23:10:43.822Z,99711.28
2022-11-24T23:13:11.263Z,99705.31
2022-11-24T23:15:38.668Z,99706.75
2022-11-24T23:18:07.386Z,99709.19
2022-11-24T23:20:35.291Z,99700.28
2022-11-24T23:23:02.707Z,99706.56
2022-11-24T23:25:30.162Z,99706.22
2022-11-24T23:27:57.586Z,99702.59
2022-11-24T23:30:25.162Z,99716.28
2022-11-24T23:32:53.431Z,99709.69
2022-11-24T23:35:22.166Z,99707.88
2022-11-24T23:38:07.096Z,99710.44
2022-11-24T23:40:35.061Z,99704.91
2022-11-24T23:43:02.444Z,99706.88
2022-11-24T23:45:30.035Z,99701.13
2022-11-24T23:47:57.497Z,99698.13
2022-11-24T23:50:26.275Z,99694.28
2022-11-24T23:52:54.257Z,99699.94
2022-11-24T23:55:21.655Z,99694.91
2022-11-24T23:57:49.047Z,99696.75
